EZY95AM EGJJ-EGGP
Flight info
| Callsign | EZY95AM |
|---|---|
| Flight time | 0h 51m |
| Altitude | 24000 |
| Route | SKERY L22 EMWIP P16 TOJAQ/N0397F230 DCT EPACE DCT ACCOP DCT MOCQO/N0391F220 P16 PEPZE |
| Aircraft | A320/M-SDE3FGHIRWY/LB1 |
Departure
| Time | 2026-05-07 13:02 |
|---|---|
| Airport | Jersey Airport (EGJJ) |
Arrival
| Time | 2026-05-07 13:53 |
|---|---|
| Airport | Liverpool John Lennon Airport (EGGP) |
| Time | Latitude | Longitude | Altitude | Speed | Heading |
|---|---|---|---|---|---|
| 2026-05-07 12:45 | 49.20553 | -2.19806 | 283 ft | 0 kts | 175° |
| 2026-05-07 12:56 | 49.20563 | -2.19808 | 282 ft | 4 kts | 163° |
| 2026-05-07 12:56 | 49.20584 | -2.19814 | 280 ft | 4 kts | 179° |
| 2026-05-07 12:56 | 49.20606 | -2.19807 | 280 ft | 4 kts | 238° |
| 2026-05-07 12:57 | 49.20611 | -2.19775 | 283 ft | 2 kts | 264° |
| 2026-05-07 12:57 | 49.20611 | -2.19772 | 283 ft | 0 kts | 264° |
| 2026-05-07 12:58 | 49.20608 | -2.19815 | 280 ft | 14 kts | 264° |
| 2026-05-07 12:59 | 49.20545 | -2.19930 | 280 ft | 16 kts | 195° |
| 2026-05-07 12:59 | 49.20533 | -2.20070 | 285 ft | 14 kts | 284° |
| 2026-05-07 12:59 | 49.20557 | -2.20196 | 282 ft | 11 kts | 288° |
| 2026-05-07 12:59 | 49.20581 | -2.20312 | 286 ft | 12 kts | 286° |
| 2026-05-07 13:00 | 49.20603 | -2.20437 | 280 ft | 12 kts | 285° |
| 2026-05-07 13:00 | 49.20624 | -2.20553 | 282 ft | 10 kts | 280° |
| 2026-05-07 13:00 | 49.20632 | -2.20652 | 281 ft | 9 kts | 283° |
| 2026-05-07 13:00 | 49.20676 | -2.20692 | 280 ft | 7 kts | 358° |
| 2026-05-07 13:01 | 49.20703 | -2.20647 | 280 ft | 6 kts | 82° |
| 2026-05-07 13:01 | 49.20708 | -2.20613 | 280 ft | 0 kts | 81° |
| 2026-05-07 13:01 | 49.20722 | -2.20467 | 281 ft | 51 kts | 83° |
| 2026-05-07 13:01 | 49.20804 | -2.19479 | 286 ft | 132 kts | 83° |
| 2026-05-07 13:02 | 49.20940 | -2.17859 | 597 ft | 163 kts | 81° |
| 2026-05-07 13:02 | 49.21081 | -2.16127 | 1500 ft | 169 kts | 80° |
| 2026-05-07 13:02 | 49.21273 | -2.14233 | 1802 ft | 193 kts | 78° |
| 2026-05-07 13:02 | 49.21656 | -2.12141 | 2155 ft | 217 kts | 64° |
| 2026-05-07 13:03 | 49.22509 | -2.10111 | 2641 ft | 237 kts | 44° |
| 2026-05-07 13:03 | 49.23837 | -2.08541 | 3277 ft | 244 kts | 25° |
| 2026-05-07 13:03 | 49.25418 | -2.07577 | 3825 ft | 250 kts | 18° |
| 2026-05-07 13:03 | 49.27149 | -2.06962 | 4435 ft | 262 kts | 352° |
| 2026-05-07 13:04 | 49.28850 | -2.07918 | 5180 ft | 266 kts | 314° |
| 2026-05-07 13:04 | 49.30103 | -2.10084 | 5794 ft | 279 kts | 300° |
| 2026-05-07 13:04 | 49.31210 | -2.12650 | 6093 ft | 306 kts | 295° |
| 2026-05-07 13:04 | 49.32275 | -2.15468 | 7117 ft | 292 kts | 294° |
| 2026-05-07 13:05 | 49.33353 | -2.18077 | 8221 ft | 294 kts | 301° |
| 2026-05-07 13:05 | 49.34638 | -2.20454 | 9163 ft | 294 kts | 304° |
| 2026-05-07 13:05 | 49.36037 | -2.22822 | 9844 ft | 302 kts | 305° |
| 2026-05-07 13:05 | 49.37489 | -2.25145 | 10715 ft | 304 kts | 306° |
| 2026-05-07 13:06 | 49.39037 | -2.27585 | 10705 ft | 336 kts | 308° |
| 2026-05-07 13:06 | 49.40728 | -2.30406 | 10036 ft | 372 kts | 305° |
| 2026-05-07 13:06 | 49.42384 | -2.33355 | 9410 ft | 351 kts | 305° |
| 2026-05-07 13:06 | 49.43434 | -2.35251 | 8629 ft | 338 kts | 302° |
| 2026-05-07 13:07 | 49.44624 | -2.37991 | 8673 ft | 283 kts | 290° |
| 2026-05-07 13:07 | 49.45310 | -2.40747 | 7504 ft | 273 kts | 272° |
| 2026-05-07 13:07 | 49.45350 | -2.43551 | 6300 ft | 255 kts | 252° |
| 2026-05-07 13:07 | 49.44761 | -2.46066 | 4741 ft | 251 kts | 230° |
| 2026-05-07 13:08 | 49.43574 | -2.47997 | 3127 ft | 249 kts | 203° |
| 2026-05-07 13:08 | 49.42237 | -2.48603 | 3791 ft | 170 kts | 177° |
| 2026-05-07 13:08 | 49.40971 | -2.48537 | 3463 ft | 192 kts | 171° |
| 2026-05-07 13:08 | 49.39662 | -2.48335 | 3129 ft | 189 kts | 168° |
| 2026-05-07 13:09 | 49.38350 | -2.47987 | 2527 ft | 195 kts | 162° |
| 2026-05-07 13:09 | 49.37018 | -2.47505 | 1830 ft | 201 kts | 162° |
| 2026-05-07 13:09 | 49.35670 | -2.46966 | 1201 ft | 202 kts | 162° |
| 2026-05-07 13:09 | 49.34274 | -2.46431 | 892 ft | 217 kts | 172° |
| 2026-05-07 13:10 | 49.32782 | -2.46824 | 2190 ft | 215 kts | 203° |
| 2026-05-07 13:10 | 49.31665 | -2.48210 | 3562 ft | 203 kts | 233° |
| 2026-05-07 13:10 | 49.31196 | -2.50215 | 4506 ft | 204 kts | 265° |
| 2026-05-07 13:10 | 49.31494 | -2.52354 | 5227 ft | 212 kts | 297° |
| 2026-05-07 13:11 | 49.32517 | -2.53994 | 5913 ft | 218 kts | 327° |
| 2026-05-07 13:11 | 49.33825 | -2.55190 | 6614 ft | 220 kts | 327° |
| 2026-05-07 13:11 | 49.35148 | -2.56394 | 7283 ft | 222 kts | 327° |
| 2026-05-07 13:11 | 49.36480 | -2.57610 | 7947 ft | 224 kts | 327° |
| 2026-05-07 13:12 | 49.37824 | -2.58844 | 8620 ft | 226 kts | 326° |
| 2026-05-07 13:12 | 49.39179 | -2.60093 | 9300 ft | 228 kts | 326° |
| 2026-05-07 13:12 | 49.40548 | -2.61362 | 9948 ft | 232 kts | 326° |
| 2026-05-07 13:12 | 49.41942 | -2.62656 | 10569 ft | 235 kts | 326° |
| 2026-05-07 13:13 | 49.43344 | -2.63957 | 11237 ft | 236 kts | 326° |
| 2026-05-07 13:13 | 49.44756 | -2.65264 | 11920 ft | 237 kts | 326° |
| 2026-05-07 13:13 | 49.46174 | -2.66575 | 12615 ft | 238 kts | 326° |
| 2026-05-07 13:13 | 49.47596 | -2.67894 | 13274 ft | 243 kts | 326° |
| 2026-05-07 13:14 | 49.49109 | -2.69308 | 13512 ft | 266 kts | 324° |
| 2026-05-07 13:14 | 49.50759 | -2.70857 | 13755 ft | 289 kts | 326° |
| 2026-05-07 13:14 | 49.52546 | -2.72535 | 13951 ft | 313 kts | 326° |
| 2026-05-07 13:14 | 49.54474 | -2.74342 | 14110 ft | 336 kts | 326° |
| 2026-05-07 13:15 | 49.56536 | -2.76269 | 14259 ft | 357 kts | 327° |
| 2026-05-07 13:15 | 49.58690 | -2.78278 | 14729 ft | 366 kts | 326° |
| 2026-05-07 13:15 | 49.60881 | -2.80319 | 15342 ft | 370 kts | 326° |
| 2026-05-07 13:15 | 49.63093 | -2.82380 | 15964 ft | 374 kts | 327° |
| 2026-05-07 13:16 | 49.65327 | -2.84468 | 16596 ft | 377 kts | 326° |
| 2026-05-07 13:16 | 49.67577 | -2.86579 | 17230 ft | 381 kts | 326° |
| 2026-05-07 13:16 | 49.69850 | -2.88717 | 17855 ft | 384 kts | 326° |
| 2026-05-07 13:16 | 49.72143 | -2.90880 | 18461 ft | 388 kts | 326° |
| 2026-05-07 13:17 | 49.74450 | -2.93057 | 19021 ft | 391 kts | 326° |
| 2026-05-07 13:17 | 49.76783 | -2.95258 | 19579 ft | 394 kts | 326° |
| 2026-05-07 13:17 | 49.79127 | -2.97471 | 20138 ft | 397 kts | 326° |
| 2026-05-07 13:17 | 49.81495 | -2.99713 | 20693 ft | 400 kts | 326° |
| 2026-05-07 13:18 | 49.83879 | -3.01970 | 21238 ft | 403 kts | 326° |
| 2026-05-07 13:18 | 49.86284 | -3.04249 | 21772 ft | 407 kts | 326° |
| 2026-05-07 13:18 | 49.88705 | -3.06546 | 22289 ft | 410 kts | 326° |
| 2026-05-07 13:18 | 49.91115 | -3.08840 | 22794 ft | 413 kts | 326° |
| 2026-05-07 13:19 | 49.93572 | -3.11182 | 23294 ft | 416 kts | 326° |
| 2026-05-07 13:19 | 49.96082 | -3.13574 | 23761 ft | 419 kts | 326° |
| 2026-05-07 13:19 | 49.98430 | -3.16146 | 23982 ft | 418 kts | 317° |
| 2026-05-07 13:19 | 50.00492 | -3.19307 | 24045 ft | 416 kts | 308° |
| 2026-05-07 13:20 | 50.02169 | -3.22953 | 24046 ft | 414 kts | 298° |
| 2026-05-07 13:20 | 50.03641 | -3.26804 | 24045 ft | 415 kts | 302° |
| 2026-05-07 13:20 | 50.05452 | -3.30319 | 24041 ft | 418 kts | 312° |
| 2026-05-07 13:20 | 50.07649 | -3.33280 | 24040 ft | 420 kts | 322° |
| 2026-05-07 13:21 | 50.10167 | -3.35623 | 24044 ft | 423 kts | 331° |
| 2026-05-07 13:21 | 50.12789 | -3.37700 | 24043 ft | 423 kts | 331° |
| 2026-05-07 13:21 | 50.15405 | -3.39796 | 24044 ft | 422 kts | 331° |
| 2026-05-07 13:21 | 50.18014 | -3.41903 | 24043 ft | 422 kts | 330° |
| 2026-05-07 13:22 | 50.20622 | -3.44016 | 24046 ft | 422 kts | 330° |
| 2026-05-07 13:22 | 50.23224 | -3.46128 | 24044 ft | 422 kts | 330° |
| 2026-05-07 13:22 | 50.25830 | -3.48246 | 24043 ft | 422 kts | 330° |
| 2026-05-07 13:22 | 50.28438 | -3.50361 | 24040 ft | 422 kts | 330° |
| 2026-05-07 13:23 | 50.31044 | -3.52472 | 24037 ft | 422 kts | 330° |
| 2026-05-07 13:23 | 50.33647 | -3.54582 | 24035 ft | 422 kts | 330° |
| 2026-05-07 13:23 | 50.36255 | -3.56699 | 24036 ft | 422 kts | 330° |
| 2026-05-07 13:23 | 50.38858 | -3.58819 | 24040 ft | 422 kts | 330° |
| 2026-05-07 13:24 | 50.41459 | -3.60941 | 24039 ft | 422 kts | 330° |
| 2026-05-07 13:24 | 50.44064 | -3.63054 | 24039 ft | 422 kts | 332° |
| 2026-05-07 13:24 | 50.46808 | -3.64713 | 24038 ft | 424 kts | 342° |
| 2026-05-07 13:24 | 50.49703 | -3.65601 | 24038 ft | 426 kts | 353° |
| 2026-05-07 13:25 | 50.52669 | -3.65683 | 24036 ft | 427 kts | 3° |
| 2026-05-07 13:25 | 50.55618 | -3.65147 | 24033 ft | 427 kts | 6° |
| 2026-05-07 13:25 | 50.58578 | -3.64577 | 24031 ft | 427 kts | 6° |
| 2026-05-07 13:25 | 50.61527 | -3.64020 | 24035 ft | 428 kts | 5° |
| 2026-05-07 13:26 | 50.64483 | -3.63463 | 24043 ft | 428 kts | 5° |
| 2026-05-07 13:26 | 50.67431 | -3.62908 | 24040 ft | 428 kts | 5° |
| 2026-05-07 13:26 | 50.70393 | -3.62348 | 24041 ft | 428 kts | 5° |
| 2026-05-07 13:26 | 50.73345 | -3.61789 | 24038 ft | 428 kts | 5° |
| 2026-05-07 13:27 | 50.76298 | -3.61227 | 24037 ft | 428 kts | 5° |
| 2026-05-07 13:27 | 50.79256 | -3.60664 | 24037 ft | 428 kts | 5° |
| 2026-05-07 13:27 | 50.82213 | -3.60099 | 24042 ft | 428 kts | 6° |
| 2026-05-07 13:27 | 50.85167 | -3.59530 | 24045 ft | 428 kts | 5° |
| 2026-05-07 13:28 | 50.88124 | -3.58961 | 24045 ft | 428 kts | 5° |
| 2026-05-07 13:28 | 50.91081 | -3.58390 | 24045 ft | 428 kts | 5° |
| 2026-05-07 13:28 | 50.94033 | -3.57822 | 24046 ft | 427 kts | 5° |
| 2026-05-07 13:28 | 50.96982 | -3.57249 | 24045 ft | 427 kts | 5° |
| 2026-05-07 13:29 | 50.99934 | -3.56673 | 24042 ft | 427 kts | 5° |
| 2026-05-07 13:29 | 51.02884 | -3.56094 | 24039 ft | 427 kts | 5° |
| 2026-05-07 13:29 | 51.05830 | -3.55518 | 24037 ft | 427 kts | 5° |
| 2026-05-07 13:29 | 51.08778 | -3.54943 | 24033 ft | 427 kts | 5° |
| 2026-05-07 13:30 | 51.11727 | -3.54365 | 24033 ft | 427 kts | 5° |
| 2026-05-07 13:30 | 51.14674 | -3.53784 | 24033 ft | 427 kts | 5° |
| 2026-05-07 13:30 | 51.17581 | -3.53214 | 24031 ft | 427 kts | 5° |
| 2026-05-07 13:30 | 51.20574 | -3.52632 | 24035 ft | 427 kts | 5° |
| 2026-05-07 13:31 | 51.23479 | -3.52066 | 24028 ft | 427 kts | 5° |
| 2026-05-07 13:31 | 51.26428 | -3.51493 | 24027 ft | 427 kts | 5° |
| 2026-05-07 13:31 | 51.29377 | -3.50921 | 24041 ft | 427 kts | 5° |
| 2026-05-07 13:31 | 51.32325 | -3.50347 | 24039 ft | 426 kts | 5° |
| 2026-05-07 13:32 | 51.35265 | -3.49768 | 24034 ft | 426 kts | 5° |
| 2026-05-07 13:32 | 51.38210 | -3.49179 | 24039 ft | 426 kts | 5° |
| 2026-05-07 13:32 | 51.41148 | -3.48590 | 24035 ft | 426 kts | 5° |
| 2026-05-07 13:32 | 51.44085 | -3.48008 | 24036 ft | 426 kts | 5° |
| 2026-05-07 13:33 | 51.47030 | -3.47427 | 24033 ft | 425 kts | 5° |
| 2026-05-07 13:33 | 51.49968 | -3.46843 | 24032 ft | 425 kts | 5° |
| 2026-05-07 13:33 | 51.52904 | -3.46260 | 24041 ft | 425 kts | 5° |
| 2026-05-07 13:33 | 51.55840 | -3.45678 | 24040 ft | 425 kts | 5° |
| 2026-05-07 13:34 | 51.58775 | -3.45095 | 24040 ft | 425 kts | 5° |
| 2026-05-07 13:34 | 51.64635 | -3.43929 | 24042 ft | 424 kts | 5° |
| 2026-05-07 13:34 | 51.67568 | -3.43344 | 24040 ft | 424 kts | 5° |
| 2026-05-07 13:35 | 51.70500 | -3.42761 | 24040 ft | 424 kts | 5° |
| 2026-05-07 13:35 | 51.73429 | -3.42182 | 24045 ft | 424 kts | 5° |
| 2026-05-07 13:35 | 51.76357 | -3.41599 | 24045 ft | 424 kts | 5° |
| 2026-05-07 13:35 | 51.79285 | -3.41010 | 24040 ft | 424 kts | 5° |
| 2026-05-07 13:36 | 51.82214 | -3.40412 | 24034 ft | 424 kts | 5° |
| 2026-05-07 13:36 | 51.85145 | -3.39815 | 24033 ft | 425 kts | 6° |
| 2026-05-07 13:36 | 51.88080 | -3.39220 | 24032 ft | 425 kts | 5° |
| 2026-05-07 13:36 | 51.91006 | -3.38632 | 24030 ft | 424 kts | 5° |
| 2026-05-07 13:37 | 51.93943 | -3.38083 | 24028 ft | 424 kts | 4° |
| 2026-05-07 13:37 | 51.96884 | -3.37718 | 24021 ft | 424 kts | 1° |
| 2026-05-07 13:37 | 51.99827 | -3.37501 | 24028 ft | 423 kts | 0° |
| 2026-05-07 13:37 | 52.02771 | -3.37365 | 24024 ft | 423 kts | 360° |
| 2026-05-07 13:38 | 52.05678 | -3.37250 | 24022 ft | 423 kts | 360° |
| 2026-05-07 13:38 | 52.08622 | -3.37114 | 24021 ft | 424 kts | 0° |
| 2026-05-07 13:38 | 52.11570 | -3.36942 | 24019 ft | 424 kts | 0° |
| 2026-05-07 13:38 | 52.14515 | -3.36738 | 24014 ft | 424 kts | 1° |
| 2026-05-07 13:39 | 52.17463 | -3.36513 | 24015 ft | 424 kts | 1° |
| 2026-05-07 13:39 | 52.20411 | -3.36280 | 24015 ft | 424 kts | 1° |
| 2026-05-07 13:39 | 52.23361 | -3.36051 | 24017 ft | 424 kts | 1° |
| 2026-05-07 13:39 | 52.26310 | -3.35827 | 24013 ft | 425 kts | 1° |
| 2026-05-07 13:40 | 52.29263 | -3.35608 | 24014 ft | 425 kts | 1° |
| 2026-05-07 13:40 | 52.32218 | -3.35387 | 24012 ft | 425 kts | 1° |
| 2026-05-07 13:40 | 52.35177 | -3.35168 | 24013 ft | 425 kts | 1° |
| 2026-05-07 13:40 | 52.38130 | -3.34955 | 24015 ft | 425 kts | 1° |
| 2026-05-07 13:41 | 52.41088 | -3.34740 | 24012 ft | 425 kts | 1° |
| 2026-05-07 13:41 | 52.44031 | -3.34530 | 23915 ft | 420 kts | 1° |
| 2026-05-07 13:41 | 52.46932 | -3.34321 | 23391 ft | 415 kts | 1° |
| 2026-05-07 13:41 | 52.49812 | -3.34113 | 22798 ft | 412 kts | 1° |
| 2026-05-07 13:42 | 52.52665 | -3.33903 | 22240 ft | 409 kts | 1° |
| 2026-05-07 13:42 | 52.55503 | -3.33693 | 21706 ft | 406 kts | 1° |
| 2026-05-07 13:42 | 52.58313 | -3.33484 | 21204 ft | 403 kts | 1° |
| 2026-05-07 13:42 | 52.61102 | -3.33263 | 20688 ft | 400 kts | 3° |
| 2026-05-07 13:43 | 52.63800 | -3.32534 | 20214 ft | 398 kts | 14° |
| 2026-05-07 13:43 | 52.66413 | -3.31090 | 19726 ft | 395 kts | 19° |
| 2026-05-07 13:43 | 52.68988 | -3.29545 | 19234 ft | 393 kts | 19° |
| 2026-05-07 13:43 | 52.71548 | -3.28017 | 18763 ft | 390 kts | 19° |
| 2026-05-07 13:44 | 52.74097 | -3.26503 | 18266 ft | 389 kts | 19° |
| 2026-05-07 13:44 | 52.76642 | -3.24994 | 17706 ft | 388 kts | 19° |
| 2026-05-07 13:44 | 52.79177 | -3.23491 | 17149 ft | 387 kts | 19° |
| 2026-05-07 13:44 | 52.81705 | -3.21982 | 16599 ft | 385 kts | 19° |
| 2026-05-07 13:45 | 52.84211 | -3.20474 | 16186 ft | 380 kts | 20° |
| 2026-05-07 13:45 | 52.86684 | -3.18985 | 15746 ft | 377 kts | 19° |
| 2026-05-07 13:45 | 52.89223 | -3.18052 | 15273 ft | 371 kts | 4° |
| 2026-05-07 13:45 | 52.91757 | -3.17723 | 14838 ft | 354 kts | 4° |
| 2026-05-07 13:46 | 52.94136 | -3.17439 | 14668 ft | 333 kts | 3° |
| 2026-05-07 13:46 | 52.96408 | -3.17180 | 14191 ft | 324 kts | 3° |
| 2026-05-07 13:46 | 52.98640 | -3.16935 | 13597 ft | 320 kts | 3° |
| 2026-05-07 13:46 | 53.00856 | -3.16690 | 12957 ft | 317 kts | 3° |
| 2026-05-07 13:47 | 53.03009 | -3.16450 | 12728 ft | 300 kts | 3° |
| 2026-05-07 13:47 | 53.05033 | -3.16221 | 12590 ft | 286 kts | 3° |
| 2026-05-07 13:47 | 53.07006 | -3.15996 | 12228 ft | 284 kts | 3° |
| 2026-05-07 13:47 | 53.08975 | -3.15810 | 11858 ft | 283 kts | 2° |
| 2026-05-07 13:48 | 53.10937 | -3.15654 | 11506 ft | 281 kts | 2° |
| 2026-05-07 13:48 | 53.12888 | -3.15508 | 11159 ft | 280 kts | 2° |
| 2026-05-07 13:48 | 53.14828 | -3.15363 | 10822 ft | 278 kts | 2° |
| 2026-05-07 13:48 | 53.16758 | -3.15218 | 10486 ft | 277 kts | 2° |
| 2026-05-07 13:49 | 53.18674 | -3.15072 | 10159 ft | 275 kts | 2° |
| 2026-05-07 13:49 | 53.20584 | -3.14929 | 9821 ft | 274 kts | 2° |
| 2026-05-07 13:49 | 53.22479 | -3.14788 | 9454 ft | 272 kts | 2° |
| 2026-05-07 13:49 | 53.24356 | -3.14642 | 8871 ft | 268 kts | 2° |
| 2026-05-07 13:50 | 53.26217 | -3.14492 | 8232 ft | 267 kts | 2° |
| 2026-05-07 13:50 | 53.28046 | -3.14109 | 7596 ft | 264 kts | 16° |
| 2026-05-07 13:50 | 53.29723 | -3.12910 | 6885 ft | 263 kts | 28° |
| 2026-05-07 13:50 | 53.31313 | -3.11297 | 6124 ft | 265 kts | 44° |
| 2026-05-07 13:51 | 53.32348 | -3.08870 | 5497 ft | 254 kts | 75° |
| 2026-05-07 13:51 | 53.32562 | -3.05969 | 4681 ft | 251 kts | 95° |
| 2026-05-07 13:51 | 53.32549 | -3.03119 | 4403 ft | 232 kts | 94° |
| 2026-05-07 13:51 | 53.32643 | -3.00604 | 4323 ft | 212 kts | 89° |
| 2026-05-07 13:52 | 53.32753 | -2.98181 | 3904 ft | 203 kts | 91° |
| 2026-05-07 13:52 | 53.32846 | -2.95814 | 3317 ft | 205 kts | 89° |
| 2026-05-07 13:52 | 53.32989 | -2.93426 | 2259 ft | 213 kts | 88° |
| 2026-05-07 13:52 | 53.33114 | -2.90932 | 962 ft | 216 kts | 87° |
| 2026-05-07 13:53 | 53.33199 | -2.88521 | 290 ft | 192 kts | 88° |
| 2026-05-07 13:53 | 53.33298 | -2.86473 | 88 ft | 160 kts | 87° |
| 2026-05-07 13:53 | 53.33365 | -2.84975 | 78 ft | 80 kts | 85° |
| 2026-05-07 13:53 | 53.33443 | -2.84461 | 83 ft | 23 kts | 59° |
| 2026-05-07 13:54 | 53.33525 | -2.84281 | 67 ft | 16 kts | 17° |